Time;durP1;ratioP1;P1;durP2;ratioP2;P2;SDS_P1;SDS_P2;PMS_P1;PMS_P2;Temp;Humidity;BMP_temperature;BMP_pressure;BME280_temperature;BME280_humidity;BME280_pressure;Samples;Min_cycle;Max_cycle;Signal;HPM_P1;HPM_P2
2022/08/17 00:02:29;;;;;;;16.73;11.10;;;25.40;81.10;;;;;;7644346;22;83401;-69
2022/08/17 00:05:29;;;;;;;15.13;9.82;;;25.50;80.60;;;;;;7644572;22;83319;-68
2022/08/17 00:08:29;;;;;;;16.45;10.25;;;25.40;80.30;;;;;;7648645;22;83360;-69
2022/08/17 00:11:30;;;;;;;17.25;10.63;;;25.30;80.70;;;;;;7617160;22;83533;-69
2022/08/17 00:14:31;;;;;;;20.70;11.20;;;25.40;80.40;;;;;;7644904;22;83188;-67
2022/08/17 00:17:31;;;;;;;15.02;9.80;;;25.40;80.10;;;;;;7645782;22;82892;-68
2022/08/17 00:20:32;;;;;;;19.20;11.07;;;25.30;80.10;;;;;;7650155;22;82843;-69
2022/08/17 00:23:32;;;;;;;19.25;10.88;;;25.20;80.70;;;;;;7645913;22;82826;-68
2022/08/17 00:26:33;;;;;;;18.73;11.20;;;25.20;80.70;;;;;;7645816;22;82964;-68
2022/08/17 00:29:34;;;;;;;16.08;10.68;;;25.30;80.40;;;;;;7644735;22;84067;-68
2022/08/17 00:32:34;;;;;;;18.23;10.27;;;25.30;80.10;;;;;;7647856;22;83945;-68
2022/08/17 00:35:35;;;;;;;17.05;11.35;;;25.10;80.50;;;;;;7647637;22;82963;-67
2022/08/17 00:38:35;;;;;;;15.27;10.38;;;24.90;81.70;;;;;;7646114;22;83707;-68
2022/08/17 00:41:36;;;;;;;18.73;11.23;;;24.70;83.10;;;;;;7646503;22;82802;-69
2022/08/17 00:44:36;;;;;;;19.23;10.93;;;24.50;83.90;;;;;;7645803;22;83934;-67
2022/08/17 00:47:37;;;;;;;18.35;10.63;;;24.30;84.50;;;;;;7646412;22;84296;-69
2022/08/17 00:50:37;;;;;;;17.55;10.50;;;24.20;85.20;;;;;;7645044;22;83032;-69
2022/08/17 00:53:38;;;;;;;18.23;11.23;;;24.20;85.60;;;;;;7645273;22;83455;-68
2022/08/17 00:56:38;;;;;;;17.45;11.63;;;24.10;86.10;;;;;;7645406;22;82922;-69
2022/08/17 00:59:39;;;;;;;17.42;11.32;;;24.10;86.40;;;;;;7645640;22;83168;-70
2022/08/17 01:02:41;;;;;;;20.48;11.35;;;24.20;86.10;;;;;;7645330;22;83004;-70
2022/08/17 01:05:42;;;;;;;25.17;12.45;;;24.30;86.10;;;;;;7645048;22;83481;-69
2022/08/17 01:08:43;;;;;;;18.95;11.77;;;24.40;84.90;;;;;;7645361;22;82861;-69
2022/08/17 01:11:43;;;;;;;22.00;11.25;;;24.50;84.80;;;;;;7645150;22;83382;-69
2022/08/17 01:14:44;;;;;;;20.90;11.93;;;24.50;84.90;;;;;;7645399;22;83048;-68
2022/08/17 01:17:44;;;;;;;24.50;11.63;;;24.50;84.60;;;;;;7645172;22;83035;-69
2022/08/17 01:20:45;;;;;;;19.15;12.10;;;24.60;84.20;;;;;;7645250;22;83131;-68
2022/08/17 01:23:45;;;;;;;17.95;11.38;;;24.70;83.80;;;;;;7645098;22;82970;-68
2022/08/17 01:26:46;;;;;;;17.30;11.25;;;24.70;83.60;;;;;;7641981;22;85745;-67
2022/08/17 01:29:47;;;;;;;17.05;10.80;;;24.90;83.10;;;;;;7645302;22;83210;-68
2022/08/17 01:32:47;;;;;;;16.52;10.95;;;24.90;82.60;;;;;;7645172;22;83228;-66
2022/08/17 01:35:48;;;;;;;22.17;12.00;;;25.00;82.10;;;;;;7644591;22;82801;-68
2022/08/17 01:38:48;;;;;;;17.42;11.13;;;25.10;81.70;;;;;;7644949;22;82929;-67
2022/08/17 01:41:49;;;;;;;19.00;12.05;;;25.20;81.40;;;;;;7645188;22;83429;-68
2022/08/17 01:44:49;;;;;;;15.63;10.82;;;25.30;80.80;;;;;;7644986;22;83434;-68
2022/08/17 01:47:50;;;;;;;17.67;10.77;;;25.40;80.80;;;;;;7645267;22;82831;-67
2022/08/17 01:50:50;;;;;;;17.33;10.38;;;25.40;80.20;;;;;;7645759;22;82810;-68
2022/08/17 01:53:51;;;;;;;17.90;10.90;;;25.40;79.80;;;;;;7645318;22;83034;-68
2022/08/17 01:56:51;;;;;;;15.65;10.85;;;25.40;79.70;;;;;;7645214;22;83004;-68
2022/08/17 01:59:52;;;;;;;20.48;10.30;;;25.40;79.70;;;;;;7644165;22;83003;-68
2022/08/17 02:02:52;;;;;;;16.13;11.00;;;25.30;79.60;;;;;;7645371;22;83090;-68
2022/08/17 02:05:53;;;;;;;17.90;11.05;;;25.30;79.40;;;;;;7644790;22;82890;-68
2022/08/17 02:08:53;;;;;;;21.23;10.63;;;25.40;79.20;;;;;;7644894;22;82954;-69
2022/08/17 02:11:54;;;;;;;20.23;10.13;;;25.40;79.30;;;;;;7644417;22;82918;-68
2022/08/17 02:14:54;;;;;;;31.08;10.93;;;25.50;78.90;;;;;;7644874;22;82831;-68
2022/08/17 02:17:55;;;;;;;15.63;10.00;;;25.50;78.80;;;;;;7645279;22;82708;-68
2022/08/17 02:20:55;;;;;;;15.25;10.30;;;25.50;78.70;;;;;;7645518;22;83058;-68
2022/08/17 02:23:56;;;;;;;15.88;10.25;;;25.60;78.40;;;;;;7645458;22;83043;-68
2022/08/17 02:26:56;;;;;;;16.85;10.18;;;25.60;78.30;;;;;;7645430;22;83208;-68
2022/08/17 02:29:57;;;;;;;17.98;10.05;;;25.70;78.00;;;;;;7645633;22;83019;-67
2022/08/17 02:32:57;;;;;;;17.35;10.40;;;25.60;77.70;;;;;;7645163;22;83610;-67
2022/08/17 02:35:58;;;;;;;14.70;9.23;;;25.60;77.60;;;;;;7646077;22;83347;-67
2022/08/17 02:38:58;;;;;;;14.18;9.75;;;25.50;77.40;;;;;;7649483;22;83183;-68
2022/08/17 02:41:59;;;;;;;13.32;9.60;;;25.50;77.60;;;;;;7649861;22;80766;-68
2022/08/17 02:45:00;;;;;;;19.27;11.05;;;25.40;77.30;;;;;;7649752;22;81581;-69
2022/08/17 02:48:00;;;;;;;15.18;10.40;;;25.10;78.30;;;;;;7645552;22;82699;-67
2022/08/17 02:51:01;;;;;;;19.42;10.18;;;24.70;80.30;;;;;;7645460;22;83780;-68
2022/08/17 02:54:01;;;;;;;16.38;10.05;;;24.40;81.40;;;;;;7643149;22;85613;-68
2022/08/17 02:57:02;;;;;;;23.02;11.52;;;24.30;82.70;;;;;;7645228;22;82821;-68
2022/08/17 03:00:02;;;;;;;21.15;11.10;;;24.10;82.90;;;;;;7645188;22;82717;-68
2022/08/17 03:03:03;;;;;;;19.55;10.60;;;24.10;83.30;;;;;;7645575;22;83085;-68
2022/08/17 03:06:03;;;;;;;15.40;10.05;;;24.30;82.70;;;;;;7645296;22;82850;-68
2022/08/17 03:09:04;;;;;;;19.70;10.98;;;24.30;82.50;;;;;;7643952;22;83033;-68
2022/08/17 03:12:04;;;;;;;14.65;9.93;;;24.20;82.80;;;;;;7645070;22;83400;-67
2022/08/17 03:15:05;;;;;;;17.85;11.05;;;24.10;83.40;;;;;;7649288;22;82911;-67
2022/08/17 03:18:05;;;;;;;14.73;10.30;;;24.00;83.70;;;;;;7645438;22;82861;-67
2022/08/17 03:21:07;;;;;;;16.45;10.77;;;24.00;83.80;;;;;;7645074;22;84237;-68
2022/08/17 03:24:07;;;;;;;20.45;11.18;;;24.10;83.40;;;;;;7644914;22;84044;-68
2022/08/17 03:27:08;;;;;;;22.40;12.60;;;24.10;83.20;;;;;;7645102;22;84288;-67
2022/08/17 03:30:09;;;;;;;18.75;12.00;;;24.00;83.90;;;;;;7643813;22;83004;-67
2022/08/17 03:33:10;;;;;;;16.77;10.88;;;23.90;84.40;;;;;;7644217;22;90000;-68
2022/08/17 03:36:10;;;;;;;17.67;11.07;;;23.90;84.40;;;;;;7642898;22;83476;-67
2022/08/17 03:39:11;;;;;;;19.63;11.57;;;24.00;84.20;;;;;;7644604;22;82736;-68
2022/08/17 03:42:11;;;;;;;17.63;10.88;;;24.00;83.80;;;;;;7643146;22;84253;-68
2022/08/17 03:45:12;;;;;;;18.48;11.63;;;24.00;84.10;;;;;;7644465;22;82925;-67
2022/08/17 03:58:10;;;;;;;18.42;12.63;;;24.50;81.40;;;;;;7645710;22;83014;-66
2022/08/17 04:01:11;;;;;;;24.77;11.55;;;24.60;80.90;;;;;;7643965;22;83081;-66
2022/08/17 04:04:11;;;;;;;14.77;10.52;;;24.60;80.50;;;;;;7645309;22;84199;-66
2022/08/17 04:07:12;;;;;;;16.40;10.88;;;24.70;80.40;;;;;;7645675;22;84060;-67
2022/08/17 04:10:12;;;;;;;17.33;10.27;;;24.70;79.80;;;;;;7645338;22;83851;-66
2022/08/17 04:13:13;;;;;;;17.58;11.40;;;24.80;79.50;;;;;;7643668;22;85811;-66
2022/08/17 04:16:13;;;;;;;15.35;10.75;;;24.90;79.30;;;;;;7644962;22;83193;-66
2022/08/17 04:19:14;;;;;;;17.58;10.68;;;24.90;78.90;;;;;;7644703;22;83334;-66
2022/08/17 04:22:14;;;;;;;15.38;10.93;;;24.90;79.00;;;;;;7644668;22;90082;-66
2022/08/17 04:25:15;;;;;;;15.63;10.07;;;24.90;78.90;;;;;;7645038;22;83181;-65
2022/08/17 04:28:15;;;;;;;15.88;9.73;;;25.00;78.60;;;;;;7645186;22;83148;-66
2022/08/17 04:31:16;;;;;;;17.33;10.35;;;25.00;78.60;;;;;;7649049;22;83469;-65
2022/08/17 04:34:16;;;;;;;17.48;10.13;;;25.00;78.60;;;;;;7645310;22;82993;-67
2022/08/17 04:37:17;;;;;;;17.90;10.38;;;25.00;78.30;;;;;;7645168;22;83390;-66
2022/08/17 04:43:37;;;;;;;14.82;9.73;;;25.00;78.40;;;;;;7647412;22;82975;-66
2022/08/17 04:46:37;;;;;;;14.75;10.13;;;25.00;78.20;;;;;;7650376;22;83049;-68
2022/08/17 04:49:38;;;;;;;16.77;10.35;;;25.00;78.30;;;;;;7645112;22;82884;-68
2022/08/17 04:52:38;;;;;;;19.45;10.13;;;25.10;78.20;;;;;;7644828;22;82820;-65
2022/08/17 04:55:39;;;;;;;19.42;10.43;;;25.20;77.90;;;;;;7644477;22;83014;-66
2022/08/17 04:58:39;;;;;;;14.73;9.77;;;25.30;77.70;;;;;;7645004;22;84792;-66
2022/08/17 05:01:40;;;;;;;14.60;9.25;;;25.30;77.70;;;;;;7634419;22;88214;-67
2022/08/17 05:04:41;;;;;;;16.77;10.05;;;25.40;77.60;;;;;;7650056;22;80523;-66
2022/08/17 05:07:41;;;;;;;15.93;10.77;;;25.40;77.40;;;;;;7646272;22;82999;-67
2022/08/17 05:10:42;;;;;;;16.15;9.45;;;25.50;77.10;;;;;;7646112;22;83442;-66
2022/08/17 05:13:43;;;;;;;17.27;10.55;;;25.60;77.20;;;;;;7649601;22;82668;-66
2022/08/17 05:16:44;;;;;;;17.73;10.50;;;25.60;77.30;;;;;;7646138;22;83127;-67
2022/08/17 05:19:46;;;;;;;13.45;10.02;;;25.60;77.10;;;;;;7645627;22;83472;-65
2022/08/17 05:22:48;;;;;;;15.82;10.00;;;25.60;76.80;;;;;;7645656;22;83111;-66
2022/08/17 05:25:48;;;;;;;15.45;10.50;;;25.70;76.90;;;;;;7657201;22;83326;-66
2022/08/17 05:35:39;;;;;;;18.63;10.75;;;25.70;76.50;;;;;;7559016;22;85474;-64
2022/08/17 05:38:39;;;;;;;15.50;9.88;;;25.70;76.50;;;;;;7681598;22;83197;-74
2022/08/17 05:41:40;;;;;;;19.85;10.80;;;25.60;76.70;;;;;;7687091;22;83563;-73
2022/08/17 05:44:40;;;;;;;16.70;10.60;;;25.60;76.80;;;;;;7683049;22;82813;-63
2022/08/17 05:47:41;;;;;;;16.13;9.95;;;25.60;76.60;;;;;;7682121;22;84311;-65
2022/08/17 05:50:41;;;;;;;13.98;9.98;;;25.70;76.70;;;;;;7684028;22;82857;-67
2022/08/17 05:53:42;;;;;;;22.80;11.15;;;25.50;76.80;;;;;;7682267;22;83343;-74
2022/08/17 05:56:42;;;;;;;21.45;11.02;;;25.50;77.30;;;;;;7682127;22;83233;-63
2022/08/17 05:59:43;;;;;;;19.58;11.45;;;25.50;77.10;;;;;;7682131;22;83139;-63
2022/08/17 06:02:43;;;;;;;19.40;11.30;;;25.60;77.10;;;;;;7681782;22;82905;-64
2022/08/17 06:05:43;;;;;;;15.55;10.15;;;25.50;77.00;;;;;;7681686;22;82899;-62
2022/08/17 06:08:44;;;;;;;17.45;11.32;;;25.50;76.60;;;;;;7681874;22;83573;-63
2022/08/17 06:11:44;;;;;;;21.38;11.40;;;25.60;76.70;;;;;;7681549;22;89117;-63
2022/08/17 06:14:45;;;;;;;17.40;10.95;;;25.60;76.70;;;;;;7680533;22;82888;-63
2022/08/17 06:17:45;;;;;;;17.25;10.77;;;25.70;76.40;;;;;;7680154;22;83266;-63
2022/08/17 06:20:46;;;;;;;22.65;10.52;;;25.70;76.00;;;;;;7681858;22;83234;-69
2022/08/17 06:23:46;;;;;;;21.80;10.82;;;25.80;76.00;;;;;;7682232;22;83042;-69
2022/08/17 06:26:50;;;;;;;21.70;11.93;;;25.80;75.90;;;;;;7679624;22;82989;-66
2022/08/17 06:29:50;;;;;;;24.60;10.77;;;25.80;75.90;;;;;;7680889;22;83091;-66
2022/08/17 06:32:51;;;;;;;21.95;11.18;;;25.90;75.70;;;;;;7681308;22;84199;-65
2022/08/17 06:35:51;;;;;;;21.92;11.85;;;25.90;75.70;;;;;;7652472;22;83158;-65
2022/08/17 06:38:52;;;;;;;15.77;9.85;;;25.90;75.80;;;;;;7645115;22;82903;-64
2022/08/17 06:41:52;;;;;;;24.70;12.23;;;25.90;75.90;;;;;;7648996;22;81775;-65
2022/08/17 06:44:53;;;;;;;17.35;11.57;;;25.90;75.80;;;;;;7645004;22;83143;-64
2022/08/17 06:47:53;;;;;;;17.50;10.82;;;25.90;76.20;;;;;;7644412;22;83147;-66
2022/08/17 06:50:54;;;;;;;16.40;10.63;;;25.90;76.60;;;;;;7644290;22;83227;-65
2022/08/17 06:53:54;;;;;;;16.45;10.68;;;26.00;76.70;;;;;;7643689;22;82954;-65
2022/08/17 06:56:56;;;;;;;23.05;11.48;;;26.00;76.30;;;;;;7644367;22;82781;-64
2022/08/17 06:59:56;;;;;;;19.67;12.05;;;26.10;76.20;;;;;;7642321;22;84362;-65
2022/08/17 07:02:57;;;;;;;23.40;11.10;;;26.00;76.50;;;;;;7644544;22;83302;-64
2022/08/17 07:05:57;;;;;;;19.63;10.82;;;26.10;76.30;;;;;;7644527;22;82974;-64
2022/08/17 07:08:58;;;;;;;19.70;11.43;;;26.10;76.20;;;;;;7644991;22;82766;-68
2022/08/17 07:11:58;;;;;;;18.50;11.07;;;26.10;76.10;;;;;;7644649;22;83013;-66
2022/08/17 07:14:58;;;;;;;16.52;10.45;;;26.10;76.30;;;;;;7644760;22;84184;-65
2022/08/17 07:18:02;;;;;;;14.15;10.80;;;26.20;76.10;;;;;;7645139;22;82940;-64
2022/08/17 07:21:03;;;;;;;19.33;11.40;;;26.20;76.30;;;;;;7644049;22;83887;-63
2022/08/17 07:24:03;;;;;;;21.33;12.00;;;26.10;76.30;;;;;;7643844;22;82974;-63
2022/08/17 07:27:04;;;;;;;19.60;12.77;;;26.20;75.80;;;;;;7643812;22;83382;-64
2022/08/17 07:30:04;;;;;;;17.05;11.07;;;26.10;76.40;;;;;;7643752;22;83221;-64
2022/08/17 07:33:05;;;;;;;18.15;10.73;;;26.10;76.40;;;;;;7644292;22;83093;-64
2022/08/17 07:36:05;;;;;;;19.55;11.95;;;26.20;75.80;;;;;;7641577;22;85431;-62
2022/08/17 07:39:06;;;;;;;16.30;11.45;;;26.20;76.40;;;;;;7643601;22;83102;-62
2022/08/17 07:42:06;;;;;;;24.40;13.02;;;26.30;76.20;;;;;;7643468;22;84545;-63
2022/08/17 07:48:17;;;;;;;21.83;12.52;;;26.30;75.80;;;;;;7643680;22;82898;-63
2022/08/17 07:48:27;;;;;;;18.33;10.90;;;26.40;76.00;;;;;;7640977;22;83038;-62
2022/08/17 07:51:28;;;;;;;18.80;11.55;;;26.40;75.80;;;;;;7641960;22;85768;-62
2022/08/17 07:54:28;;;;;;;17.77;11.77;;;26.50;75.60;;;;;;7644845;22;82862;-63
2022/08/17 07:57:29;;;;;;;19.20;11.10;;;26.60;75.50;;;;;;7644556;22;83016;-63
2022/08/17 08:00:31;;;;;;;18.45;12.13;;;26.60;75.20;;;;;;7644872;22;83233;-62
2022/08/17 08:03:32;;;;;;;19.88;13.60;;;26.60;75.20;;;;;;7644293;22;83190;-63
2022/08/17 08:06:36;;;;;;;16.05;11.75;;;26.60;75.50;;;;;;7644070;22;83119;-62
2022/08/17 08:09:37;;;;;;;17.67;11.68;;;26.70;75.50;;;;;;7643907;22;83447;-62
2022/08/17 08:12:37;;;;;;;20.60;12.35;;;26.70;75.60;;;;;;7643594;22;84096;-62
2022/08/17 08:15:38;;;;;;;15.20;10.48;;;26.70;75.30;;;;;;7643501;22;84103;-62
2022/08/17 08:18:38;;;;;;;17.45;11.50;;;26.80;75.40;;;;;;7643562;22;83022;-62
2022/08/17 08:21:40;;;;;;;19.88;12.02;;;26.80;75.90;;;;;;7644395;22;83207;-62
2022/08/17 08:24:40;;;;;;;19.30;11.90;;;26.80;75.90;;;;;;7644550;22;83331;-64
2022/08/17 08:27:41;;;;;;;17.40;11.13;;;26.90;75.70;;;;;;7643927;22;83149;-63
2022/08/17 08:30:42;;;;;;;28.80;12.35;;;27.00;75.60;;;;;;7644140;22;83175;-63
2022/08/17 08:33:42;;;;;;;18.08;11.63;;;26.90;75.10;;;;;;7642742;22;82953;-64
2022/08/17 08:36:43;;;;;;;16.80;11.10;;;27.00;75.70;;;;;;7644376;22;82991;-62
2022/08/17 08:39:43;;;;;;;19.67;11.70;;;27.00;75.60;;;;;;7645853;22;83126;-61
2022/08/17 08:42:44;;;;;;;36.47;19.00;;;27.00;75.80;;;;;;7645889;22;82898;-62
2022/08/17 08:45:44;;;;;;;70.80;35.78;;;27.10;76.00;;;;;;7645579;22;83035;-61
2022/08/17 08:48:45;;;;;;;144.85;59.97;;;27.10;75.80;;;;;;7645715;22;82671;-62
2022/08/17 08:51:45;;;;;;;176.23;71.38;;;27.10;75.90;;;;;;7646123;22;82851;-62
2022/08/17 08:54:46;;;;;;;136.63;62.00;;;27.10;75.90;;;;;;7646523;22;83324;-63
2022/08/17 08:57:46;;;;;;;122.35;51.03;;;27.10;76.70;;;;;;7646152;22;82976;-63
2022/08/17 09:00:47;;;;;;;95.80;44.28;;;27.20;77.00;;;;;;7643125;22;83438;-64
2022/08/17 09:03:48;;;;;;;108.90;45.95;;;27.20;77.00;;;;;;7645036;22;82870;-63
2022/08/17 09:06:48;;;;;;;92.65;38.55;;;27.30;75.80;;;;;;7645079;22;83415;-65
2022/08/17 09:09:49;;;;;;;75.63;34.70;;;27.30;76.10;;;;;;7646102;22;83089;-62
2022/08/17 09:12:49;;;;;;;65.82;30.90;;;27.40;75.90;;;;;;7645541;22;83323;-62
2022/08/17 09:15:49;;;;;;;50.72;27.13;;;27.40;75.70;;;;;;7644772;22;82601;-62
2022/08/17 09:18:50;;;;;;;50.55;24.38;;;27.40;75.40;;;;;;7645976;22;83064;-63
2022/08/17 09:21:54;;;;;;;40.38;21.10;;;27.40;75.50;;;;;;7644220;22;83198;-63
2022/08/17 09:24:55;;;;;;;34.03;20.25;;;27.50;75.60;;;;;;7645597;22;83555;-62
2022/08/17 09:27:58;;;;;;;29.30;17.42;;;27.60;75.60;;;;;;7617466;22;84397;-62
2022/08/17 09:31:02;;;;;;;28.92;17.80;;;27.60;75.40;;;;;;7638807;22;84368;-62
2022/08/17 09:34:02;;;;;;;31.67;17.10;;;27.60;75.30;;;;;;7641980;22;82821;-63
2022/08/17 09:37:03;;;;;;;28.85;15.60;;;27.60;75.30;;;;;;7644668;22;83954;-63
2022/08/17 09:40:07;;;;;;;30.38;18.13;;;27.60;75.40;;;;;;7645814;22;82859;-77
2022/08/17 09:43:07;;;;;;;30.15;17.27;;;27.60;75.30;;;;;;7646015;22;82968;-67
2022/08/17 09:46:08;;;;;;;29.45;17.23;;;27.60;75.20;;;;;;7645497;22;82686;-63
2022/08/17 09:49:08;;;;;;;25.17;16.35;;;27.60;75.20;;;;;;7645515;22;83043;-63
2022/08/17 09:52:09;;;;;;;29.63;16.08;;;27.70;76.00;;;;;;7645212;22;83052;-62
2022/08/17 09:55:09;;;;;;;27.83;16.70;;;27.60;75.00;;;;;;7645082;22;84531;-63
2022/08/17 09:58:10;;;;;;;24.50;15.70;;;27.60;76.40;;;;;;7645628;22;82735;-63
2022/08/17 10:01:10;;;;;;;26.02;15.93;;;27.60;76.70;;;;;;7646017;22;83568;-62
2022/08/17 10:04:11;;;;;;;25.02;16.15;;;27.60;75.90;;;;;;7645718;22;83045;-62
2022/08/17 10:07:11;;;;;;;30.42;17.25;;;27.60;75.80;;;;;;7645543;22;83525;-63
2022/08/17 10:10:12;;;;;;;26.05;15.75;;;27.70;74.90;;;;;;7645924;22;83310;-63
2022/08/17 10:13:13;;;;;;;30.08;17.25;;;27.60;75.30;;;;;;7645250;22;83178;-63
2022/08/17 10:16:13;;;;;;;31.33;17.05;;;27.60;75.90;;;;;;7645743;22;83182;-63
2022/08/17 10:19:14;;;;;;;23.92;15.13;;;27.60;75.50;;;;;;7645278;22;83556;-63
2022/08/17 10:28:53;;;;;;;28.00;16.15;;;27.60;74.30;;;;;;7610228;22;88525;-65
2022/08/17 10:31:54;;;;;;;24.20;16.58;;;27.50;73.70;;;;;;7645261;22;83507;-64
2022/08/17 10:34:55;;;;;;;26.48;17.45;;;27.50;73.80;;;;;;7643422;22;84130;-64
2022/08/17 10:37:55;;;;;;;31.52;17.50;;;27.40;73.80;;;;;;7645198;22;83139;-65
2022/08/17 10:40:56;;;;;;;25.95;17.13;;;27.50;73.90;;;;;;7645484;22;84021;-68
2022/08/17 10:43:57;;;;;;;26.63;16.92;;;27.40;75.60;;;;;;7645517;22;82903;-66
2022/08/17 10:46:58;;;;;;;34.42;17.15;;;27.30;75.60;;;;;;7645232;22;83672;-69
2022/08/17 10:49:58;;;;;;;26.40;15.52;;;27.40;75.30;;;;;;7645943;22;82981;-69
2022/08/17 10:52:59;;;;;;;29.13;15.80;;;27.40;74.20;;;;;;7645530;22;84048;-67
2022/08/17 10:55:59;;;;;;;28.77;15.10;;;27.40;73.80;;;;;;7645408;22;83991;-68
2022/08/17 10:59:00;;;;;;;23.85;14.23;;;27.40;73.40;;;;;;7644845;22;83587;-68
2022/08/17 11:02:00;;;;;;;24.02;13.60;;;27.50;73.10;;;;;;7646059;22;83382;-70
2022/08/17 11:05:01;;;;;;;17.60;12.05;;;27.50;72.60;;;;;;7646771;22;83149;-70
2022/08/17 11:08:04;;;;;;;23.58;12.48;;;27.50;72.40;;;;;;7647971;22;83540;-70
2022/08/17 11:11:04;;;;;;;21.13;11.13;;;27.60;72.40;;;;;;7647062;22;83756;-68
2022/08/17 11:14:05;;;;;;;21.63;11.68;;;27.60;72.20;;;;;;7646907;22;83718;-67
2022/08/17 11:17:06;;;;;;;16.92;11.07;;;27.60;71.10;;;;;;7649512;22;83007;-72
2022/08/17 11:20:06;;;;;;;16.92;10.65;;;27.60;70.40;;;;;;7646993;22;83359;-70
2022/08/17 11:23:07;;;;;;;20.27;10.07;;;27.60;71.00;;;;;;7645849;22;83702;-69
2022/08/17 11:26:07;;;;;;;20.30;10.05;;;27.60;68.40;;;;;;7646860;22;83151;-69
2022/08/17 11:29:08;;;;;;;18.60;10.90;;;27.60;68.00;;;;;;7648455;22;84510;-68
2022/08/17 11:32:12;;;;;;;18.52;9.88;;;27.60;68.60;;;;;;7647204;22;83911;-70
2022/08/17 11:35:12;;;;;;;15.75;9.45;;;27.60;68.80;;;;;;7650609;22;82916;-69
2022/08/17 11:38:13;;;;;;;15.25;9.63;;;27.60;69.40;;;;;;7648987;22;82736;-68
2022/08/17 11:41:13;;;;;;;17.00;9.73;;;27.60;70.10;;;;;;7651689;22;80793;-70
2022/08/17 11:44:14;;;;;;;23.60;11.02;;;27.60;69.90;;;;;;7649154;22;81509;-70
2022/08/17 11:53:53;;;;;;;13.75;8.85;;;27.90;72.40;;;;;;7648305;22;82847;-68
2022/08/17 11:56:53;;;;;;;17.05;9.98;;;27.90;68.40;;;;;;7646359;22;82794;-69
2022/08/17 11:59:54;;;;;;;12.13;8.50;;;27.80;68.20;;;;;;7644651;22;83238;-68
2022/08/17 12:02:57;;;;;;;13.48;8.80;;;28.10;69.60;;;;;;7647792;22;83604;-68
2022/08/17 12:05:57;;;;;;;13.10;8.82;;;28.00;66.70;;;;;;7648180;22;80322;-68
2022/08/17 12:08:58;;;;;;;17.42;9.13;;;28.10;66.50;;;;;;7648404;22;80203;-71
2022/08/17 12:11:58;;;;;;;11.77;8.48;;;28.10;66.80;;;;;;7649351;22;80546;-66
2022/08/17 12:14:58;;;;;;;16.25;8.65;;;28.20;66.00;;;;;;7649862;22;80717;-65
2022/08/17 12:17:59;;;;;;;21.63;10.50;;;28.20;65.00;;;;;;7649618;22;81417;-65
2022/08/17 12:20:59;;;;;;;18.58;9.00;;;28.30;66.80;;;;;;7645113;22;83037;-66
2022/08/17 12:24:00;;;;;;;12.68;8.40;;;28.30;65.80;;;;;;7647607;22;83045;-66
2022/08/17 12:27:01;;;;;;;13.57;9.00;;;28.20;66.00;;;;;;7649588;22;80311;-66
2022/08/17 12:30:01;;;;;;;18.40;10.07;;;28.30;65.90;;;;;;7649798;22;80962;-66
2022/08/17 12:33:02;;;;;;;18.58;9.23;;;28.20;65.50;;;;;;7645541;22;83038;-65
2022/08/17 12:36:03;;;;;;;13.27;9.10;;;28.20;65.00;;;;;;7649289;22;82974;-66
2022/08/17 12:39:05;;;;;;;19.15;10.02;;;28.20;65.00;;;;;;7649905;22;80088;-66
2022/08/17 12:42:07;;;;;;;15.05;8.63;;;28.20;64.90;;;;;;7644200;22;83022;-66
2022/08/17 12:45:07;;;;;;;18.83;8.85;;;28.20;64.40;;;;;;7650040;22;81796;-66
2022/08/17 12:48:08;;;;;;;16.52;9.60;;;28.30;65.30;;;;;;7648079;22;82052;-65
2022/08/17 12:51:10;;;;;;;11.77;7.75;;;28.50;65.10;;;;;;7650162;22;80228;-66
2022/08/17 12:54:10;;;;;;;15.73;8.10;;;28.70;63.20;;;;;;7650063;22;81286;-66
2022/08/17 12:57:11;;;;;;;11.30;8.60;;;28.70;64.70;;;;;;7650342;22;80381;-66
2022/08/17 13:00:15;;;;;;;11.65;9.07;;;28.70;64.00;;;;;;7650036;22;80375;-67
2022/08/17 13:03:16;;;;;;;18.17;8.65;;;28.80;62.20;;;;;;7650213;22;80200;-66
2022/08/17 13:06:18;;;;;;;17.23;8.38;;;29.00;63.00;;;;;;7650320;22;80842;-67
2022/08/17 13:09:18;;;;;;;12.55;7.70;;;28.80;62.20;;;;;;7650248;22;80528;-67
2022/08/17 13:12:19;;;;;;;17.58;8.30;;;28.80;61.70;;;;;;7648511;22;81785;-68
2022/08/17 13:15:19;;;;;;;12.07;7.97;;;28.80;61.70;;;;;;7649909;22;80574;-67
2022/08/17 13:18:20;;;;;;;13.95;6.78;;;28.80;61.80;;;;;;7651513;22;81083;-68
2022/08/17 13:21:26;;;;;;;15.43;7.75;;;28.80;62.20;;;;;;7650031;22;80838;-68
2022/08/17 13:24:28;;;;;;;12.98;7.03;;;28.80;62.30;;;;;;7649296;22;80417;-66
2022/08/17 13:27:28;;;;;;;11.90;7.50;;;28.60;60.40;;;;;;7648920;22;80455;-66
2022/08/17 13:30:31;;;;;;;12.90;7.78;;;28.60;60.10;;;;;;7648994;22;81562;-67
2022/08/17 13:33:31;;;;;;;11.30;7.30;;;28.50;61.00;;;;;;7647845;22;80520;-66
2022/08/17 13:36:32;;;;;;;14.50;7.28;;;28.60;62.00;;;;;;7649151;22;80760;-66
2022/08/17 13:39:33;;;;;;;14.23;7.35;;;28.60;61.90;;;;;;7649856;22;80352;-66
2022/08/17 13:42:33;;;;;;;18.83;8.10;;;28.70;62.20;;;;;;7649516;22;80138;-67
2022/08/17 13:45:36;;;;;;;11.65;8.20;;;28.70;62.10;;;;;;7647476;22;81748;-67
2022/08/17 13:48:37;;;;;;;11.00;7.32;;;28.70;61.70;;;;;;7649060;22;81511;-66
2022/08/17 13:51:37;;;;;;;11.43;7.20;;;28.70;61.60;;;;;;7648405;22;80582;-67
2022/08/17 13:54:38;;;;;;;13.32;6.63;;;28.70;62.40;;;;;;7649014;22;80748;-66
2022/08/17 13:57:38;;;;;;;14.77;7.43;;;28.70;61.70;;;;;;7649047;22;80622;-67
2022/08/17 14:00:39;;;;;;;14.07;7.45;;;28.70;61.80;;;;;;7649147;22;80674;-67
2022/08/17 14:03:40;;;;;;;15.88;8.98;;;28.60;62.20;;;;;;7648775;22;81380;-66
2022/08/17 14:06:40;;;;;;;9.02;7.07;;;28.60;62.20;;;;;;7648985;22;80465;-66
2022/08/17 14:09:41;;;;;;;9.82;7.60;;;28.60;62.60;;;;;;7649990;22;80411;-66
2022/08/17 14:12:41;;;;;;;22.88;8.18;;;28.60;63.10;;;;;;7649506;22;80460;-65
2022/08/17 14:15:42;;;;;;;11.88;7.25;;;28.60;63.80;;;;;;7648908;22;80642;-66
2022/08/17 14:18:42;;;;;;;14.52;7.13;;;28.70;63.30;;;;;;7648133;22;80543;-65
2022/08/17 14:21:43;;;;;;;11.77;7.38;;;28.70;63.90;;;;;;7646439;22;81404;-65
2022/08/17 14:24:43;;;;;;;17.10;8.27;;;28.70;62.60;;;;;;7647939;22;80477;-65
2022/08/17 14:27:44;;;;;;;11.95;7.43;;;28.70;62.80;;;;;;7647506;22;80916;-66
2022/08/17 14:30:45;;;;;;;15.30;7.38;;;28.70;63.00;;;;;;7646540;22;80737;-64
2022/08/17 14:33:45;;;;;;;11.13;7.70;;;28.70;63.30;;;;;;7645992;22;81208;-63
2022/08/17 14:36:46;;;;;;;17.77;8.48;;;28.70;63.30;;;;;;7647917;22;80296;-65
2022/08/17 14:39:46;;;;;;;12.77;6.95;;;28.70;62.30;;;;;;7648448;22;80396;-66
2022/08/17 14:42:47;;;;;;;18.20;7.90;;;28.70;63.00;;;;;;7649281;22;80797;-68
2022/08/17 14:45:47;;;;;;;20.58;8.43;;;28.70;62.40;;;;;;7648913;22;80578;-65
2022/08/17 14:48:51;;;;;;;13.73;7.60;;;28.60;62.80;;;;;;7648693;22;80443;-63
2022/08/17 14:51:51;;;;;;;13.07;8.52;;;28.70;64.30;;;;;;7649498;22;80848;-66
2022/08/17 14:54:52;;;;;;;16.00;7.30;;;28.60;63.60;;;;;;7646750;22;83554;-73
2022/08/17 14:57:52;;;;;;;12.50;7.97;;;28.70;64.10;;;;;;7649607;22;80229;-67
2022/08/17 15:00:53;;;;;;;11.20;7.45;;;28.70;64.60;;;;;;7650469;22;81034;-74
2022/08/17 15:03:53;;;;;;;13.38;7.68;;;28.70;64.20;;;;;;7649056;22;80330;-65
2022/08/17 15:06:54;;;;;;;20.00;8.05;;;28.70;65.10;;;;;;7646441;22;80579;-65
2022/08/17 15:09:55;;;;;;;16.58;8.30;;;28.70;65.10;;;;;;7648290;22;80588;-67
2022/08/17 15:12:56;;;;;;;12.65;8.32;;;28.60;64.70;;;;;;7646726;22;81474;-63
2022/08/17 15:15:58;;;;;;;16.15;9.10;;;28.60;64.80;;;;;;7647903;22;80342;-64
2022/08/17 15:18:58;;;;;;;17.45;8.50;;;28.60;65.30;;;;;;7646954;22;80341;-64
2022/08/17 15:21:59;;;;;;;13.88;8.75;;;28.60;65.90;;;;;;7647248;22;81856;-65
2022/08/17 15:24:59;;;;;;;14.88;8.75;;;28.50;65.80;;;;;;7648616;22;80651;-64
2022/08/17 15:28:00;;;;;;;17.92;8.68;;;28.50;66.00;;;;;;7648339;22;80350;-65
2022/08/17 15:31:00;;;;;;;15.10;8.15;;;28.40;66.20;;;;;;7648783;22;80375;-63
2022/08/17 15:34:04;;;;;;;11.82;7.03;;;28.40;66.60;;;;;;7648030;22;80177;-62
2022/08/17 15:37:04;;;;;;;16.60;7.95;;;28.30;66.30;;;;;;7648472;22;83255;-63
2022/08/17 15:40:05;;;;;;;14.88;8.02;;;28.30;65.70;;;;;;7648944;22;80249;-63
2022/08/17 15:43:05;;;;;;;13.57;7.93;;;28.30;66.60;;;;;;7648735;22;81150;-65
2022/08/17 15:46:06;;;;;;;14.63;8.60;;;28.30;66.90;;;;;;7650032;22;80762;-64
2022/08/17 15:49:07;;;;;;;16.50;7.80;;;28.20;66.90;;;;;;7650969;22;82056;-69
2022/08/17 15:52:07;;;;;;;15.68;7.60;;;28.20;66.80;;;;;;7651190;22;80244;-68
2022/08/17 15:55:08;;;;;;;19.80;8.07;;;28.20;66.80;;;;;;7650030;22;80323;-64